createdAt,value
2019-04-19T00:00:49.881Z,98996.35
2019-04-19T00:03:22.497Z,99000.94
2019-04-19T00:06:21.444Z,99003.55
2019-04-19T00:09:06.442Z,98994.89
2019-04-19T00:11:30.704Z,99001.91
2019-04-19T00:13:53.543Z,98997.33
2019-04-19T00:16:24.290Z,98993.89
2019-04-19T00:19:21.158Z,98993.91
2019-04-19T00:21:55.977Z,98996.49
2019-04-19T00:24:01.872Z,98993.23
2019-04-19T00:26:33.739Z,98993.50
2019-04-19T00:29:07.670Z,98996.60
2019-04-19T00:31:45.162Z,98997.22
2019-04-19T00:34:10.304Z,98991.69
2019-04-19T00:36:40.491Z,98993.95
2019-04-19T00:40:06.247Z,98990.36
2019-04-19T00:42:59.118Z,98993.78
2019-04-19T00:45:49.502Z,99001.41
2019-04-19T00:48:24.620Z,99001.39
2019-04-19T00:50:54.162Z,99003.05
2019-04-19T00:53:24.343Z,99003.21
2019-04-19T00:55:55.443Z,99001.11
2019-04-19T00:58:22.617Z,99002.40
2019-04-19T01:00:49.090Z,99010.23
2019-04-19T01:03:27.429Z,99013.98
2019-04-19T01:05:59.084Z,99011.96
2019-04-19T01:08:26.045Z,99012.09
2019-04-19T01:11:12.696Z,99012.09
2019-04-19T01:13:47.633Z,99008.53
2019-04-19T01:16:13.195Z,99005.73
2019-04-19T01:18:45.509Z,99007.84
2019-04-19T01:21:09.139Z,99007.84
2019-04-19T01:23:45.707Z,99005.22
2019-04-19T01:26:14.901Z,99007.16
2019-04-19T01:28:51.202Z,99015.57
2019-04-19T01:31:21.251Z,99012.95
2019-04-19T01:33:49.176Z,99012.81
2019-04-19T01:36:28.752Z,99014.75
2019-04-19T01:39:11.934Z,99014.55
2019-04-19T01:41:37.312Z,99015.20
2019-04-19T01:44:24.104Z,99015.86
2019-04-19T01:47:00.719Z,99016.59
2019-04-19T01:49:58.836Z,99022.60
2019-04-19T01:52:45.116Z,99017.72
2019-04-19T01:55:05.870Z,99021.92
2019-04-19T01:57:28.321Z,99029.71
2019-04-19T02:00:03.873Z,99027.61
2019-04-19T02:02:36.741Z,99027.38
2019-04-19T02:05:12.318Z,99030.53
2019-04-19T02:07:40.493Z,99031.59
2019-04-19T02:11:37.686Z,99030.55
2019-04-19T02:14:03.662Z,99031.17
2019-04-19T02:16:30.253Z,99037.08
2019-04-19T02:19:06.322Z,99038.96
2019-04-19T02:21:38.076Z,99036.30
2019-04-19T02:24:08.617Z,99040.56
2019-04-19T02:26:50.086Z,99035.96
2019-04-19T02:29:19.063Z,99039.95
2019-04-19T02:34:39.324Z,99041.44
2019-04-19T02:37:16.420Z,99050.22
2019-04-19T02:42:37.015Z,99050.70
2019-04-19T02:49:59.484Z,99054.28
2019-04-19T02:55:12.192Z,99053.25
2019-04-19T02:58:38.392Z,99059.91
2019-04-19T03:01:18.751Z,99056.37
2019-04-19T03:03:34.232Z,99062.36
2019-04-19T03:06:04.032Z,99061.70
2019-04-19T03:08:18.905Z,99066.14
2019-04-19T03:11:04.414Z,99070.77
2019-04-19T03:13:36.832Z,99065.78
2019-04-19T03:16:10.116Z,99064.77
2019-04-19T03:18:45.472Z,99065.78
2019-04-19T03:21:26.644Z,99071.76
2019-04-19T03:23:55.539Z,99064.61
2019-04-19T03:26:26.754Z,99069.42
2019-04-19T03:28:48.555Z,99072.97
2019-04-19T03:31:49.354Z,99070.48
2019-04-19T03:34:16.264Z,99066.75
2019-04-19T03:36:39.096Z,99071.42
2019-04-19T03:39:17.933Z,99073.86
2019-04-19T03:42:03.137Z,99076.45
2019-04-19T03:44:36.029Z,99073.91
2019-04-19T03:47:18.243Z,99082.84
2019-04-19T03:49:45.174Z,99081.19
2019-04-19T03:52:20.140Z,99085.33
2019-04-19T03:54:43.982Z,99088.41
2019-04-19T03:57:18.763Z,99087.44
2019-04-19T03:59:35.581Z,99085.24
2019-04-19T04:02:07.877Z,99086.25
2019-04-19T04:04:38.842Z,99090.53
2019-04-19T04:07:17.487Z,99093.14
2019-04-19T04:10:04.505Z,99103.02
2019-04-19T04:13:07.075Z,99097.27
2019-04-19T04:15:56.913Z,99108.83
2019-04-19T04:18:17.817Z,99104.48
2019-04-19T04:20:52.649Z,99101.40
2019-04-19T04:23:28.119Z,99107.72
2019-04-19T04:26:01.063Z,99107.37
2019-04-19T04:28:41.600Z,99110.66
2019-04-19T04:31:11.063Z,99116.70
2019-04-19T04:33:42.599Z,99119.30
2019-04-19T04:36:25.354Z,99117.05
2019-04-19T04:38:39.880Z,99118.88
2019-04-19T04:41:15.571Z,99135.13
2019-04-19T04:43:53.994Z,99135.34
2019-04-19T04:46:57.693Z,99137.03
2019-04-19T04:49:54.029Z,99131.92
2019-04-19T04:52:32.156Z,99140.48
2019-04-19T04:55:07.543Z,99139.75
2019-04-19T04:57:50.570Z,99144.23
2019-04-19T05:00:16.030Z,99144.11
2019-04-19T05:03:09.259Z,99149.30
2019-04-19T05:05:43.266Z,99147.72
2019-04-19T05:08:25.570Z,99151.56
2019-04-19T05:11:03.063Z,99155.81
2019-04-19T05:13:39.551Z,99152.25
2019-04-19T05:16:16.109Z,99163.48
2019-04-19T05:18:40.137Z,99164.18
2019-04-19T05:21:18.081Z,99169.66
2019-04-19T05:23:59.679Z,99169.70
2019-04-19T05:28:55.613Z,99170.64
2019-04-19T05:31:22.685Z,99173.38
2019-04-19T05:34:09.786Z,99178.84
2019-04-19T05:36:38.620Z,99169.58
2019-04-19T05:39:17.224Z,99171.58
2019-04-19T05:42:03.973Z,99168.05
2019-04-19T05:44:55.285Z,99169.09
2019-04-19T05:47:20.670Z,99173.25
2019-04-19T05:49:52.013Z,99170.36
2019-04-19T05:52:23.276Z,99174.81
2019-04-19T05:54:39.014Z,99170.33
2019-04-19T05:57:33.160Z,99175.66
2019-04-19T05:59:51.984Z,99168.55
2019-04-19T06:02:26.229Z,99172.03
2019-04-19T06:05:13.034Z,99172.76
2019-04-19T06:07:37.374Z,99170.27
2019-04-19T06:09:54.050Z,99173.19
2019-04-19T06:12:28.788Z,99174.42
2019-04-19T06:15:19.072Z,99172.00
2019-04-19T06:18:05.301Z,99174.02
2019-04-19T06:20:39.774Z,99180.97
2019-04-19T06:23:12.462Z,99174.74
2019-04-19T06:26:09.116Z,99173.67
2019-04-19T06:30:50.775Z,99176.09
2019-04-19T06:33:26.652Z,99179.75
2019-04-19T06:35:48.516Z,99187.59
2019-04-19T06:38:11.883Z,99185.90
2019-04-19T06:40:52.440Z,99182.21
2019-04-19T06:43:30.533Z,99184.79
2019-04-19T06:46:02.246Z,99182.78
2019-04-19T06:48:26.661Z,99186.48
2019-04-19T06:50:57.405Z,99190.83
2019-04-19T06:53:35.798Z,99193.20
2019-04-19T06:56:05.872Z,99194.00
2019-04-19T06:58:40.345Z,99200.63
2019-04-19T07:01:16.704Z,99194.20
2019-04-19T07:03:39.039Z,99190.39
2019-04-19T07:06:27.071Z,99186.39
2019-04-19T07:09:09.040Z,99193.17
2019-04-19T07:11:39.471Z,99185.05
2019-04-19T07:13:58.410Z,99192.61
2019-04-19T07:16:39.438Z,99191.64
2019-04-19T07:19:14.208Z,99189.22
2019-04-19T07:21:44.079Z,99193.33
2019-04-19T07:24:29.508Z,99192.00
2019-04-19T07:26:59.350Z,99186.77
2019-04-19T07:29:10.846Z,99181.84
2019-04-19T07:31:42.735Z,99190.03
2019-04-19T07:34:32.524Z,99194.60
2019-04-19T07:37:02.079Z,99186.39
2019-04-19T07:39:37.790Z,99189.00
2019-04-19T07:42:12.390Z,99198.14
2019-04-19T07:44:46.085Z,99196.66
2019-04-19T07:47:27.765Z,99198.75
2019-04-19T07:49:59.186Z,99195.28
2019-04-19T07:52:24.877Z,99198.86
2019-04-19T07:54:57.784Z,99199.00
2019-04-19T08:00:33.437Z,99200.27
2019-04-19T08:05:26.559Z,99197.76
2019-04-19T08:13:13.399Z,99203.70
2019-04-19T08:15:44.316Z,99201.36
2019-04-19T08:28:12.916Z,99202.63
2019-04-19T08:30:37.819Z,99199.59
2019-04-19T08:33:02.447Z,99202.69
2019-04-19T08:35:42.242Z,99199.54
2019-04-19T08:38:17.479Z,99206.38
2019-04-19T08:40:57.891Z,99204.34
2019-04-19T08:43:31.898Z,99202.18
2019-04-19T08:46:00.794Z,99204.41
2019-04-19T08:48:58.616Z,99202.41
2019-04-19T08:51:50.624Z,99198.06
2019-04-19T08:54:41.111Z,99192.96
2019-04-19T08:57:04.318Z,99195.94
2019-04-19T08:59:50.746Z,99200.05
2019-04-19T09:02:16.014Z,99202.61
2019-04-19T09:04:56.315Z,99202.52
2019-04-19T09:07:43.822Z,99203.54
2019-04-19T09:10:18.411Z,99201.31
2019-04-19T09:12:31.243Z,99194.27
2019-04-19T09:15:08.739Z,99193.77
2019-04-19T09:17:56.140Z,99201.42
2019-04-19T09:20:25.450Z,99202.94
2019-04-19T09:22:56.986Z,99198.02
2019-04-19T09:25:31.564Z,99197.52
2019-04-19T09:28:19.580Z,99209.88
2019-04-19T09:30:40.956Z,99199.23
2019-04-19T09:33:01.140Z,99203.63
2019-04-19T09:35:39.936Z,99198.59
2019-04-19T09:38:17.299Z,99191.63
2019-04-19T09:40:46.790Z,99204.07
2019-04-19T09:43:24.142Z,99200.11
2019-04-19T09:45:42.945Z,99200.91
2019-04-19T09:48:31.714Z,99202.22
2019-04-19T09:50:58.975Z,99199.94
2019-04-19T09:56:13.214Z,99208.22
2019-04-19T09:58:44.285Z,99214.15
2019-04-19T10:01:08.962Z,99203.80
2019-04-19T10:03:47.745Z,99204.52
2019-04-19T10:06:15.222Z,99196.36
2019-04-19T10:08:45.830Z,99189.30
2019-04-19T10:11:16.939Z,99189.90
2019-04-19T10:13:48.046Z,99192.50
2019-04-19T10:16:37.639Z,99198.20
2019-04-19T10:19:11.115Z,99199.48
2019-04-19T10:21:53.990Z,99197.08
2019-04-19T10:24:25.889Z,99202.09
2019-04-19T10:27:19.178Z,99202.20
2019-04-19T10:29:51.178Z,99189.92
2019-04-19T10:32:30.818Z,99196.88
2019-04-19T10:35:01.997Z,99196.40
2019-04-19T10:37:33.615Z,99194.08
2019-04-19T10:40:07.856Z,99187.78
2019-04-19T10:42:38.977Z,99183.73
2019-04-19T10:45:12.221Z,99187.50
2019-04-19T10:47:44.108Z,99195.48
2019-04-19T10:50:28.176Z,99200.97
2019-04-19T10:52:47.912Z,99203.92
2019-04-19T10:55:20.823Z,99195.89
2019-04-19T10:57:51.442Z,99194.86
2019-04-19T11:00:22.363Z,99192.53
2019-04-19T11:02:56.967Z,99194.88
2019-04-19T11:05:29.975Z,99185.02
2019-04-19T11:08:01.315Z,99187.98
2019-04-19T11:10:35.686Z,99179.04
2019-04-19T11:13:06.360Z,99185.87
2019-04-19T11:15:38.311Z,99180.30
2019-04-19T11:18:09.778Z,99188.63
2019-04-19T11:20:47.300Z,99182.52
2019-04-19T11:23:13.603Z,99181.28
2019-04-19T11:25:46.128Z,99175.47
2019-04-19T11:28:16.546Z,99179.14
2019-04-19T11:31:06.776Z,99182.70
2019-04-19T11:33:37.450Z,99181.03
2019-04-19T11:36:08.017Z,99176.13
2019-04-19T11:38:38.844Z,99173.39
2019-04-19T11:41:09.468Z,99173.77
2019-04-19T11:43:40.098Z,99170.70
2019-04-19T11:46:11.711Z,99175.30
2019-04-19T11:48:43.643Z,99174.06
2019-04-19T11:51:14.227Z,99169.13
2019-04-19T11:53:47.507Z,99171.25
2019-04-19T11:56:46.394Z,99173.70
2019-04-19T11:59:37.146Z,99169.81
2019-04-19T12:02:04.525Z,99175.70
2019-04-19T12:04:36.324Z,99174.88
2019-04-19T12:07:08.161Z,99171.07
2019-04-19T12:09:38.750Z,99167.95
2019-04-19T12:12:09.495Z,99173.17
2019-04-19T12:14:40.051Z,99165.22
2019-04-19T12:17:11.096Z,99169.34
2019-04-19T12:19:49.678Z,99167.31
2019-04-19T12:22:14.914Z,99166.45
2019-04-19T12:24:46.744Z,99170.12
2019-04-19T12:27:18.003Z,99171.07
2019-04-19T12:29:51.505Z,99165.16
2019-04-19T12:32:25.490Z,99162.98
2019-04-19T12:34:55.033Z,99164.03
2019-04-19T12:37:26.924Z,99166.77
2019-04-19T12:39:57.557Z,99163.06
2019-04-19T12:42:33.910Z,99157.49
2019-04-19T12:45:06.017Z,99159.70
2019-04-19T12:47:38.115Z,99166.95
2019-04-19T12:50:12.982Z,99165.19
2019-04-19T12:52:44.139Z,99156.05
2019-04-19T12:55:15.487Z,99152.23
2019-04-19T12:57:54.687Z,99159.48
2019-04-19T13:00:28.213Z,99151.73
2019-04-19T13:03:02.530Z,99148.36
2019-04-19T13:05:39.375Z,99149.47
2019-04-19T13:08:11.384Z,99145.48
2019-04-19T13:10:42.952Z,99136.48
2019-04-19T13:13:13.991Z,99146.38
2019-04-19T13:15:44.641Z,99143.80
2019-04-19T13:18:16.170Z,99139.75
2019-04-19T13:20:48.371Z,99138.28
2019-04-19T13:23:20.060Z,99134.41
2019-04-19T13:25:51.207Z,99130.73
2019-04-19T13:28:21.767Z,99131.31
2019-04-19T13:30:57.316Z,99127.75
2019-04-19T13:33:26.399Z,99121.25
2019-04-19T13:35:59.272Z,99126.68
2019-04-19T13:38:35.434Z,99128.69
2019-04-19T13:41:25.007Z,99125.02
2019-04-19T13:43:56.513Z,99127.62
2019-04-19T13:46:27.114Z,99124.61
2019-04-19T13:48:58.834Z,99122.78
2019-04-19T13:51:30.296Z,99124.52
2019-04-19T13:54:00.938Z,99121.95
2019-04-19T13:56:33.975Z,99118.18
2019-04-19T13:59:05.628Z,99112.07
2019-04-19T14:01:36.594Z,99108.33
2019-04-19T14:04:08.748Z,99120.26
2019-04-19T14:06:40.294Z,99113.81
2019-04-19T14:09:16.144Z,99111.66
2019-04-19T14:11:47.562Z,99103.30
2019-04-19T14:14:18.503Z,99109.78
2019-04-19T14:16:53.952Z,99113.99
2019-04-19T14:19:26.970Z,99104.22
2019-04-19T14:21:57.627Z,99109.84
2019-04-19T14:24:29.272Z,99110.14
2019-04-19T14:27:01.090Z,99104.51
2019-04-19T14:29:33.007Z,99103.17
2019-04-19T14:32:03.576Z,99103.95
2019-04-19T14:34:35.349Z,99095.54
2019-04-19T14:37:07.759Z,99108.23
2019-04-19T14:39:40.433Z,99108.34
2019-04-19T14:42:11.777Z,99110.63
2019-04-19T14:44:43.226Z,99101.55
2019-04-19T14:47:14.897Z,99094.71
2019-04-19T14:49:45.555Z,99103.95
2019-04-19T14:52:16.254Z,99095.75
2019-04-19T14:54:48.082Z,99099.59
2019-04-19T14:57:21.442Z,99095.38
2019-04-19T14:59:51.182Z,99098.22
2019-04-19T15:02:31.552Z,99095.75
2019-04-19T15:05:05.539Z,99099.62
2019-04-19T15:07:36.542Z,99103.52
2019-04-19T15:10:09.194Z,99101.98
2019-04-19T15:12:40.706Z,99102.88
2019-04-19T15:15:14.495Z,99096.55
2019-04-19T15:17:47.291Z,99098.55
2019-04-19T15:20:20.154Z,99098.55
2019-04-19T15:22:50.781Z,99096.98
2019-04-19T15:25:23.644Z,99096.23
2019-04-19T15:27:54.931Z,99091.46
2019-04-19T15:30:25.835Z,99096.83
2019-04-19T15:32:56.405Z,99096.83
2019-04-19T15:35:27.780Z,99091.09
2019-04-19T15:37:58.369Z,99094.09
2019-04-19T15:40:30.090Z,99097.02
2019-04-19T15:43:01.108Z,99093.72
2019-04-19T15:45:32.145Z,99101.16
2019-04-19T15:48:02.737Z,99098.20
2019-04-19T15:50:35.946Z,99099.69
2019-04-19T15:53:06.653Z,99100.38
2019-04-19T15:55:37.871Z,99101.55
2019-04-19T15:58:08.637Z,99100.85
2019-04-19T16:00:52.783Z,99092.20
2019-04-19T16:03:47.822Z,99103.11
2019-04-19T16:06:36.284Z,99100.64
2019-04-19T16:09:29.195Z,99104.85
2019-04-19T16:12:03.627Z,99104.33
2019-04-19T16:14:34.155Z,99101.63
2019-04-19T16:17:05.677Z,99094.66
2019-04-19T16:19:36.481Z,99100.46
2019-04-19T16:22:07.627Z,99097.44
2019-04-19T16:24:41.103Z,99097.64
2019-04-19T16:27:11.747Z,99096.79
2019-04-19T16:29:49.160Z,99099.63
2019-04-19T16:32:14.813Z,99097.67
2019-04-19T16:34:45.421Z,99094.13
2019-04-19T16:37:16.723Z,99101.28
2019-04-19T16:39:48.285Z,99103.14
2019-04-19T16:42:19.030Z,99099.81
2019-04-19T16:44:49.891Z,99100.49
2019-04-19T16:47:21.686Z,99103.31
2019-04-19T16:49:54.347Z,99102.69
2019-04-19T16:52:24.822Z,99103.40
2019-04-19T16:54:58.480Z,99096.36
2019-04-19T16:57:30.427Z,99102.99
2019-04-19T17:00:00.051Z,99100.67
2019-04-19T17:02:31.103Z,99104.59
2019-04-19T17:05:08.569Z,99099.33
2019-04-19T17:07:39.677Z,99101.95
2019-04-19T17:10:11.735Z,99110.09
2019-04-19T17:12:47.778Z,99105.72
2019-04-19T17:15:37.004Z,99107.07
2019-04-19T17:18:20.728Z,99112.06
2019-04-19T17:20:57.688Z,99109.02
2019-04-19T17:23:30.721Z,99114.30
2019-04-19T17:26:01.422Z,99114.48
2019-04-19T17:28:32.911Z,99123.23
2019-04-19T17:31:04.351Z,99119.95
2019-04-19T17:33:35.903Z,99121.75
2019-04-19T17:36:06.580Z,99124.48
2019-04-19T17:38:46.340Z,99122.52
2019-04-19T17:41:14.526Z,99123.15
2019-04-19T17:43:47.864Z,99121.69
2019-04-19T17:46:20.218Z,99125.06
2019-04-19T17:48:51.131Z,99127.42
2019-04-19T17:51:21.971Z,99126.89
2019-04-19T17:53:54.400Z,99130.42
2019-04-19T17:56:27.186Z,99134.28
2019-04-19T17:58:58.225Z,99134.39
2019-04-19T18:01:28.880Z,99134.80
2019-04-19T18:04:00.748Z,99136.41
2019-04-19T18:06:34.504Z,99135.49
2019-04-19T18:09:14.132Z,99138.34
2019-04-19T18:11:41.449Z,99140.22
2019-04-19T18:14:12.150Z,99142.23
2019-04-19T18:16:42.899Z,99143.16
2019-04-19T18:19:16.688Z,99149.53
2019-04-19T18:21:46.108Z,99157.27
2019-04-19T18:24:22.863Z,99154.89
2019-04-19T18:26:50.186Z,99148.52
2019-04-19T18:29:23.913Z,99161.28
2019-04-19T18:32:06.052Z,99161.89
2019-04-19T18:34:45.320Z,99161.79
2019-04-19T18:37:17.794Z,99167.47
2019-04-19T18:39:48.174Z,99172.62
2019-04-19T18:42:19.897Z,99171.61
2019-04-19T18:44:55.084Z,99171.97
2019-04-19T18:47:22.934Z,99168.06
2019-04-19T18:49:53.834Z,99173.45
2019-04-19T18:52:37.250Z,99175.45
2019-04-19T18:55:03.351Z,99179.25
2019-04-19T18:57:34.020Z,99177.33
2019-04-19T19:00:02.244Z,99180.11
2019-04-19T19:02:34.279Z,99185.11
2019-04-19T19:05:08.423Z,99189.42
2019-04-19T19:07:38.875Z,99190.95
2019-04-19T19:10:21.119Z,99194.12
2019-04-19T19:12:49.307Z,99192.80
2019-04-19T19:15:18.658Z,99197.24
2019-04-19T19:17:54.347Z,99200.48
2019-04-19T19:20:27.409Z,99203.34
2019-04-19T19:23:09.270Z,99207.30
2019-04-19T19:25:40.857Z,99203.11
2019-04-19T19:28:06.744Z,99204.20
2019-04-19T19:30:38.787Z,99202.02
2019-04-19T19:33:15.267Z,99213.97
2019-04-19T19:35:47.707Z,99216.81
2019-04-19T19:38:19.781Z,99212.84
2019-04-19T19:40:59.781Z,99217.03
2019-04-19T19:43:35.692Z,99219.36
2019-04-19T19:46:11.757Z,99216.97
2019-04-19T19:48:57.730Z,99224.72
2019-04-19T19:51:17.576Z,99223.56
2019-04-19T19:54:02.468Z,99223.55
2019-04-19T19:56:30.601Z,99223.63
2019-04-19T19:58:43.820Z,99229.55
2019-04-19T20:01:23.629Z,99231.83
2019-04-19T20:03:48.697Z,99230.38
2019-04-19T20:06:20.228Z,99236.84
2019-04-19T20:08:49.732Z,99235.85
2019-04-19T20:11:26.429Z,99236.53
2019-04-19T20:13:57.368Z,99237.52
2019-04-19T20:16:29.930Z,99237.64
2019-04-19T20:19:01.743Z,99238.69
2019-04-19T20:21:32.387Z,99240.02
2019-04-19T20:24:14.154Z,99242.66
2019-04-19T20:26:51.549Z,99241.63
2019-04-19T20:29:20.293Z,99247.11
2019-04-19T20:31:44.211Z,99244.70
2019-04-19T20:34:22.795Z,99248.08
2019-04-19T20:36:47.496Z,99250.69
2019-04-19T20:39:24.981Z,99253.20
2019-04-19T20:42:00.156Z,99248.77
2019-04-19T20:44:41.929Z,99253.27
2019-04-19T20:47:02.142Z,99257.49
2019-04-19T20:49:36.848Z,99254.05
2019-04-19T20:52:14.538Z,99265.30
2019-04-19T20:54:58.946Z,99260.08
2019-04-19T20:57:50.102Z,99264.23
2019-04-19T21:00:14.510Z,99263.77
2019-04-19T21:02:45.845Z,99269.40
2019-04-19T21:05:17.698Z,99271.14
2019-04-19T21:07:53.946Z,99272.03
2019-04-19T21:10:22.170Z,99269.13
2019-04-19T21:13:01.377Z,99269.81
2019-04-19T21:15:33.168Z,99273.59
2019-04-19T21:17:59.183Z,99276.14
2019-04-19T21:20:31.217Z,99279.92
2019-04-19T21:23:07.927Z,99282.24
2019-04-19T21:25:44.175Z,99278.92
2019-04-19T21:28:06.761Z,99281.69
2019-04-19T21:30:39.172Z,99279.51
2019-04-19T21:33:13.471Z,99275.94
2019-04-19T21:35:48.474Z,99276.27
2019-04-19T21:38:19.278Z,99274.33
2019-04-19T21:40:48.219Z,99279.13
2019-04-19T21:43:23.416Z,99277.01
2019-04-19T21:45:53.551Z,99284.13
2019-04-19T21:48:31.638Z,99271.84
2019-04-19T21:50:58.255Z,99277.61
2019-04-19T21:53:29.904Z,99275.95
2019-04-19T21:56:05.728Z,99276.92
2019-04-19T21:58:36.148Z,99282.57
2019-04-19T22:01:15.087Z,99284.87
2019-04-19T22:03:49.392Z,99280.94
2019-04-19T22:06:23.089Z,99284.89
2019-04-19T22:08:50.359Z,99286.88
2019-04-19T22:11:25.078Z,99287.84
2019-04-19T22:13:55.687Z,99286.73
2019-04-19T22:16:31.717Z,99281.02
2019-04-19T22:18:59.376Z,99287.77
2019-04-19T22:21:38.560Z,99289.08
2019-04-19T22:24:04.561Z,99287.77
2019-04-19T22:26:39.957Z,99293.69
2019-04-19T22:29:07.674Z,99288.94
2019-04-19T22:31:39.439Z,99287.63
2019-04-19T22:34:12.886Z,99286.83
2019-04-19T22:36:48.525Z,99289.78
2019-04-19T22:39:25.632Z,99286.33
2019-04-19T22:41:57.047Z,99284.70
2019-04-19T22:44:27.760Z,99287.28
2019-04-19T22:46:59.749Z,99286.97
2019-04-19T22:49:34.020Z,99281.39
2019-04-19T22:52:02.805Z,99281.73
2019-04-19T22:54:33.395Z,99276.64
2019-04-19T22:57:11.980Z,99281.72
2019-04-19T22:59:36.297Z,99285.00
2019-04-19T23:02:37.280Z,99282.70
2019-04-19T23:05:09.167Z,99279.41
2019-04-19T23:07:45.454Z,99278.59
2019-04-19T23:10:14.865Z,99278.41
2019-04-19T23:12:45.682Z,99280.02
2019-04-19T23:15:23.309Z,99282.94
2019-04-19T23:17:48.647Z,99277.39
2019-04-19T23:20:22.914Z,99274.61
2019-04-19T23:22:51.544Z,99279.80
2019-04-19T23:25:28.626Z,99279.31
2019-04-19T23:28:08.062Z,99283.59
2019-04-19T23:30:29.638Z,99284.20
2019-04-19T23:33:05.758Z,99288.45
2019-04-19T23:35:35.053Z,99284.34
2019-04-19T23:38:05.212Z,99286.75
2019-04-19T23:40:38.967Z,99280.52
2019-04-19T23:43:08.253Z,99285.28
2019-04-19T23:45:43.848Z,99280.05
2019-04-19T23:48:12.892Z,99285.11
2019-04-19T23:50:44.125Z,99283.81
2019-04-19T23:53:14.821Z,99279.84
2019-04-19T23:55:46.689Z,99284.42
2019-04-19T23:58:26.268Z,99281.30
